sensor_id;sensor_type;location;lat;lon;timestamp;P1;durP1;ratioP1;P2;durP2;ratioP2
44026;SDS011;29696;55.698;37.460;2022-08-04T00:01:48;24.10;;;10.27;;
44026;SDS011;29696;55.698;37.460;2022-08-04T00:04:31;34.03;;;9.80;;
44026;SDS011;29696;55.698;37.460;2022-08-04T00:10:15;43.67;;;12.68;;
44026;SDS011;29696;55.698;37.460;2022-08-04T00:12:46;48.78;;;14.27;;
44026;SDS011;29696;55.698;37.460;2022-08-04T00:15:17;33.38;;;9.30;;
44026;SDS011;29696;55.698;37.460;2022-08-04T00:17:45;25.52;;;8.73;;
44026;SDS011;29696;55.698;37.460;2022-08-04T00:20:32;43.38;;;11.07;;
44026;SDS011;29696;55.698;37.460;2022-08-04T00:23:00;34.25;;;11.73;;
44026;SDS011;29696;55.698;37.460;2022-08-04T00:25:27;46.40;;;13.63;;
44026;SDS011;29696;55.698;37.460;2022-08-04T00:27:54;35.92;;;10.88;;
44026;SDS011;29696;55.698;37.460;2022-08-04T00:30:20;32.30;;;10.40;;
44026;SDS011;29696;55.698;37.460;2022-08-04T00:32:47;32.85;;;11.25;;
44026;SDS011;29696;55.698;37.460;2022-08-04T00:35:15;36.88;;;11.77;;
44026;SDS011;29696;55.698;37.460;2022-08-04T00:37:45;29.85;;;10.50;;
44026;SDS011;29696;55.698;37.460;2022-08-04T00:40:22;38.83;;;12.75;;
44026;SDS011;29696;55.698;37.460;2022-08-04T00:59:50;53.17;;;13.68;;
44026;SDS011;29696;55.698;37.460;2022-08-04T01:03:23;29.35;;;10.20;;
44026;SDS011;29696;55.698;37.460;2022-08-04T01:06:16;23.42;;;9.15;;
44026;SDS011;29696;55.698;37.460;2022-08-04T01:08:59;21.55;;;9.45;;
44026;SDS011;29696;55.698;37.460;2022-08-04T01:11:54;14.63;;;8.15;;
44026;SDS011;29696;55.698;37.460;2022-08-04T01:14:50;42.58;;;11.15;;
44026;SDS011;29696;55.698;37.460;2022-08-04T01:20:49;22.38;;;7.55;;
44026;SDS011;29696;55.698;37.460;2022-08-04T01:23:48;16.88;;;8.80;;
44026;SDS011;29696;55.698;37.460;2022-08-04T01:29:37;14.93;;;7.38;;
44026;SDS011;29696;55.698;37.460;2022-08-04T01:32:17;11.18;;;6.85;;
44026;SDS011;29696;55.698;37.460;2022-08-04T01:41:05;16.85;;;7.45;;
44026;SDS011;29696;55.698;37.460;2022-08-04T01:43:35;12.05;;;7.13;;
44026;SDS011;29696;55.698;37.460;2022-08-04T01:46:06;10.18;;;7.18;;
44026;SDS011;29696;55.698;37.460;2022-08-04T01:48:37;13.13;;;7.30;;
44026;SDS011;29696;55.698;37.460;2022-08-04T01:51:05;12.05;;;8.43;;
44026;SDS011;29696;55.698;37.460;2022-08-04T01:53:34;12.63;;;7.53;;
44026;SDS011;29696;55.698;37.460;2022-08-04T01:56:03;18.17;;;8.52;;
44026;SDS011;29696;55.698;37.460;2022-08-04T01:58:31;21.65;;;8.32;;
44026;SDS011;29696;55.698;37.460;2022-08-04T02:01:08;12.90;;;7.72;;
44026;SDS011;29696;55.698;37.460;2022-08-04T02:03:37;15.10;;;7.50;;
44026;SDS011;29696;55.698;37.460;2022-08-04T02:15:56;19.48;;;8.40;;
44026;SDS011;29696;55.698;37.460;2022-08-04T02:18:31;18.60;;;8.75;;
44026;SDS011;29696;55.698;37.460;2022-08-04T02:21:09;9.95;;;7.60;;
44026;SDS011;29696;55.698;37.460;2022-08-04T02:23:38;14.25;;;8.77;;
44026;SDS011;29696;55.698;37.460;2022-08-04T02:26:11;17.10;;;8.85;;
44026;SDS011;29696;55.698;37.460;2022-08-04T02:28:55;25.55;;;11.60;;
44026;SDS011;29696;55.698;37.460;2022-08-04T02:34:29;12.50;;;8.63;;
44026;SDS011;29696;55.698;37.460;2022-08-04T02:37:19;13.45;;;9.40;;
44026;SDS011;29696;55.698;37.460;2022-08-04T02:39:50;18.17;;;9.10;;
44026;SDS011;29696;55.698;37.460;2022-08-04T02:42:18;15.07;;;9.77;;
44026;SDS011;29696;55.698;37.460;2022-08-04T02:44:48;13.90;;;7.82;;
44026;SDS011;29696;55.698;37.460;2022-08-04T02:47:19;10.68;;;8.45;;
44026;SDS011;29696;55.698;37.460;2022-08-04T02:49:46;13.52;;;8.93;;
44026;SDS011;29696;55.698;37.460;2022-08-04T02:52:15;13.68;;;8.05;;
44026;SDS011;29696;55.698;37.460;2022-08-04T02:54:44;21.63;;;12.80;;
44026;SDS011;29696;55.698;37.460;2022-08-04T02:57:18;19.65;;;9.73;;
44026;SDS011;29696;55.698;37.460;2022-08-04T02:59:56;15.35;;;9.80;;
44026;SDS011;29696;55.698;37.460;2022-08-04T03:13:04;15.80;;;9.77;;
44026;SDS011;29696;55.698;37.460;2022-08-04T03:42:38;10.65;;;7.43;;
44026;SDS011;29696;55.698;37.460;2022-08-04T03:48:42;12.55;;;7.85;;
44026;SDS011;29696;55.698;37.460;2022-08-04T03:51:42;16.38;;;8.50;;
44026;SDS011;29696;55.698;37.460;2022-08-04T04:25:22;14.07;;;6.78;;
44026;SDS011;29696;55.698;37.460;2022-08-04T04:35:40;9.18;;;5.57;;
44026;SDS011;29696;55.698;37.460;2022-08-04T04:41:33;9.52;;;4.90;;
44026;SDS011;29696;55.698;37.460;2022-08-04T04:50:37;6.70;;;5.07;;
44026;SDS011;29696;55.698;37.460;2022-08-04T04:58:44;5.43;;;4.40;;
44026;SDS011;29696;55.698;37.460;2022-08-04T05:01:15;8.95;;;4.72;;
44026;SDS011;29696;55.698;37.460;2022-08-04T05:20:06;9.38;;;4.50;;
44026;SDS011;29696;55.698;37.460;2022-08-04T05:22:39;5.85;;;3.92;;
44026;SDS011;29696;55.698;37.460;2022-08-04T05:28:14;7.57;;;5.32;;
44026;SDS011;29696;55.698;37.460;2022-08-04T05:30:49;9.98;;;4.18;;
44026;SDS011;29696;55.698;37.460;2022-08-04T05:33:20;8.80;;;4.10;;
44026;SDS011;29696;55.698;37.460;2022-08-04T05:38:21;13.70;;;4.45;;
44026;SDS011;29696;55.698;37.460;2022-08-04T05:40:49;10.32;;;5.25;;
44026;SDS011;29696;55.698;37.460;2022-08-04T05:43:17;15.30;;;5.13;;
44026;SDS011;29696;55.698;37.460;2022-08-04T05:45:45;4.80;;;4.03;;
44026;SDS011;29696;55.698;37.460;2022-08-04T05:48:14;7.25;;;4.40;;
44026;SDS011;29696;55.698;37.460;2022-08-04T05:50:42;5.68;;;3.88;;
44026;SDS011;29696;55.698;37.460;2022-08-04T05:53:10;4.35;;;3.17;;
44026;SDS011;29696;55.698;37.460;2022-08-04T05:55:40;11.77;;;4.90;;
44026;SDS011;29696;55.698;37.460;2022-08-04T05:58:06;13.38;;;4.55;;
44026;SDS011;29696;55.698;37.460;2022-08-04T06:00:33;7.30;;;4.47;;
44026;SDS011;29696;55.698;37.460;2022-08-04T06:03:00;6.43;;;3.72;;
44026;SDS011;29696;55.698;37.460;2022-08-04T06:05:27;7.38;;;3.67;;
44026;SDS011;29696;55.698;37.460;2022-08-04T06:07:54;3.88;;;3.50;;
44026;SDS011;29696;55.698;37.460;2022-08-04T06:10:21;4.63;;;3.97;;
44026;SDS011;29696;55.698;37.460;2022-08-04T06:12:51;6.55;;;3.63;;
44026;SDS011;29696;55.698;37.460;2022-08-04T06:15:20;6.22;;;4.40;;
44026;SDS011;29696;55.698;37.460;2022-08-04T06:17:51;6.18;;;3.20;;
44026;SDS011;29696;55.698;37.460;2022-08-04T06:20:20;8.68;;;3.83;;
44026;SDS011;29696;55.698;37.460;2022-08-04T06:22:52;6.68;;;3.45;;
44026;SDS011;29696;55.698;37.460;2022-08-04T06:25:22;7.38;;;3.30;;
44026;SDS011;29696;55.698;37.460;2022-08-04T06:27:51;4.15;;;2.95;;
44026;SDS011;29696;55.698;37.460;2022-08-04T06:30:19;3.80;;;2.90;;
44026;SDS011;29696;55.698;37.460;2022-08-04T06:32:50;9.87;;;3.30;;
44026;SDS011;29696;55.698;37.460;2022-08-04T06:35:22;7.80;;;3.22;;
44026;SDS011;29696;55.698;37.460;2022-08-04T06:37:49;4.00;;;2.90;;
44026;SDS011;29696;55.698;37.460;2022-08-04T06:40:19;2.90;;;2.40;;
44026;SDS011;29696;55.698;37.460;2022-08-04T06:42:47;4.10;;;2.58;;
44026;SDS011;29696;55.698;37.460;2022-08-04T06:45:14;5.25;;;2.58;;
44026;SDS011;29696;55.698;37.460;2022-08-04T06:47:41;8.20;;;3.15;;
44026;SDS011;29696;55.698;37.460;2022-08-04T06:50:10;4.85;;;3.00;;
44026;SDS011;29696;55.698;37.460;2022-08-04T06:52:37;10.05;;;2.97;;
44026;SDS011;29696;55.698;37.460;2022-08-04T06:55:04;6.80;;;3.15;;
44026;SDS011;29696;55.698;37.460;2022-08-04T06:57:32;11.00;;;3.28;;
44026;SDS011;29696;55.698;37.460;2022-08-04T07:00:03;3.00;;;2.70;;
44026;SDS011;29696;55.698;37.460;2022-08-04T07:02:33;2.90;;;2.60;;
44026;SDS011;29696;55.698;37.460;2022-08-04T07:07:32;13.95;;;3.05;;
44026;SDS011;29696;55.698;37.460;2022-08-04T07:10:00;5.60;;;2.75;;
44026;SDS011;29696;55.698;37.460;2022-08-04T07:12:27;9.32;;;4.25;;
44026;SDS011;29696;55.698;37.460;2022-08-04T07:14:53;15.70;;;2.83;;
44026;SDS011;29696;55.698;37.460;2022-08-04T07:17:20;3.83;;;2.72;;
44026;SDS011;29696;55.698;37.460;2022-08-04T07:19:48;4.72;;;2.83;;
44026;SDS011;29696;55.698;37.460;2022-08-04T07:22:14;10.85;;;2.70;;
44026;SDS011;29696;55.698;37.460;2022-08-04T07:24:41;11.88;;;3.05;;
44026;SDS011;29696;55.698;37.460;2022-08-04T07:27:08;12.77;;;3.80;;
44026;SDS011;29696;55.698;37.460;2022-08-04T07:29:34;4.40;;;2.72;;
44026;SDS011;29696;55.698;37.460;2022-08-04T07:32:01;6.80;;;2.33;;
44026;SDS011;29696;55.698;37.460;2022-08-04T07:34:28;5.78;;;2.60;;
44026;SDS011;29696;55.698;37.460;2022-08-04T07:36:57;9.50;;;2.35;;
44026;SDS011;29696;55.698;37.460;2022-08-04T07:39:26;11.15;;;2.60;;
44026;SDS011;29696;55.698;37.460;2022-08-04T07:41:55;2.65;;;2.40;;
44026;SDS011;29696;55.698;37.460;2022-08-04T07:44:23;5.22;;;2.20;;
44026;SDS011;29696;55.698;37.460;2022-08-04T07:46:50;7.22;;;2.50;;
44026;SDS011;29696;55.698;37.460;2022-08-04T07:49:16;8.75;;;2.25;;
44026;SDS011;29696;55.698;37.460;2022-08-04T07:51:43;2.50;;;2.25;;
44026;SDS011;29696;55.698;37.460;2022-08-04T07:54:10;2.85;;;2.30;;
44026;SDS011;29696;55.698;37.460;2022-08-04T07:56:38;4.68;;;2.42;;
44026;SDS011;29696;55.698;37.460;2022-08-04T07:59:06;2.50;;;2.15;;
44026;SDS011;29696;55.698;37.460;2022-08-04T08:01:35;3.25;;;1.92;;
44026;SDS011;29696;55.698;37.460;2022-08-04T08:04:05;7.40;;;3.28;;
44026;SDS011;29696;55.698;37.460;2022-08-04T08:06:34;9.95;;;3.50;;
44026;SDS011;29696;55.698;37.460;2022-08-04T08:09:08;6.95;;;2.63;;
44026;SDS011;29696;55.698;37.460;2022-08-04T08:11:59;7.47;;;2.97;;
44026;SDS011;29696;55.698;37.460;2022-08-04T08:14:27;3.58;;;2.25;;
44026;SDS011;29696;55.698;37.460;2022-08-04T08:16:55;3.05;;;2.85;;
44026;SDS011;29696;55.698;37.460;2022-08-04T08:19:21;3.47;;;2.40;;
44026;SDS011;29696;55.698;37.460;2022-08-04T08:21:47;3.85;;;2.40;;
44026;SDS011;29696;55.698;37.460;2022-08-04T08:24:14;6.82;;;2.60;;
44026;SDS011;29696;55.698;37.460;2022-08-04T08:26:41;7.63;;;2.67;;
44026;SDS011;29696;55.698;37.460;2022-08-04T08:29:08;3.40;;;2.67;;
44026;SDS011;29696;55.698;37.460;2022-08-04T08:31:35;6.63;;;2.65;;
44026;SDS011;29696;55.698;37.460;2022-08-04T08:34:01;5.43;;;2.35;;
44026;SDS011;29696;55.698;37.460;2022-08-04T08:36:31;9.00;;;2.70;;
44026;SDS011;29696;55.698;37.460;2022-08-04T08:39:15;2.78;;;2.42;;
44026;SDS011;29696;55.698;37.460;2022-08-04T08:52:03;3.20;;;2.30;;
44026;SDS011;29696;55.698;37.460;2022-08-04T08:54:55;3.38;;;3.08;;
44026;SDS011;29696;55.698;37.460;2022-08-04T09:11:09;11.40;;;4.75;;
44026;SDS011;29696;55.698;37.460;2022-08-04T09:16:59;7.95;;;4.30;;
44026;SDS011;29696;55.698;37.460;2022-08-04T09:19:35;13.05;;;5.30;;
44026;SDS011;29696;55.698;37.460;2022-08-04T09:22:09;4.10;;;3.70;;
44026;SDS011;29696;55.698;37.460;2022-08-04T09:24:57;8.80;;;5.13;;
44026;SDS011;29696;55.698;37.460;2022-08-04T09:30:46;7.85;;;4.78;;
44026;SDS011;29696;55.698;37.460;2022-08-04T09:36:28;7.20;;;4.65;;
44026;SDS011;29696;55.698;37.460;2022-08-04T09:42:17;10.55;;;5.20;;
44026;SDS011;29696;55.698;37.460;2022-08-04T09:48:24;17.85;;;4.80;;
44026;SDS011;29696;55.698;37.460;2022-08-04T09:50:59;10.75;;;5.32;;
44026;SDS011;29696;55.698;37.460;2022-08-04T09:56:37;7.50;;;4.43;;
44026;SDS011;29696;55.698;37.460;2022-08-04T10:02:06;9.45;;;5.65;;
44026;SDS011;29696;55.698;37.460;2022-08-04T10:04:36;15.65;;;5.60;;
44026;SDS011;29696;55.698;37.460;2022-08-04T10:14:06;7.10;;;4.90;;
44026;SDS011;29696;55.698;37.460;2022-08-04T10:16:46;6.65;;;5.82;;
44026;SDS011;29696;55.698;37.460;2022-08-04T10:19:28;12.55;;;6.57;;
44026;SDS011;29696;55.698;37.460;2022-08-04T10:25:10;9.98;;;6.15;;
44026;SDS011;29696;55.698;37.460;2022-08-04T10:27:51;7.70;;;6.07;;
44026;SDS011;29696;55.698;37.460;2022-08-04T10:30:22;11.15;;;5.90;;
44026;SDS011;29696;55.698;37.460;2022-08-04T10:36:08;8.00;;;6.13;;
44026;SDS011;29696;55.698;37.460;2022-08-04T10:41:32;6.68;;;5.65;;
44026;SDS011;29696;55.698;37.460;2022-08-04T10:47:15;7.70;;;5.70;;
44026;SDS011;29696;55.698;37.460;2022-08-04T10:49:50;10.77;;;5.57;;
44026;SDS011;29696;55.698;37.460;2022-08-04T10:55:37;8.98;;;5.88;;
44026;SDS011;29696;55.698;37.460;2022-08-04T10:58:35;8.05;;;7.15;;
44026;SDS011;29696;55.698;37.460;2022-08-04T11:01:11;7.75;;;5.75;;
44026;SDS011;29696;55.698;37.460;2022-08-04T11:03:55;12.05;;;6.50;;
44026;SDS011;29696;55.698;37.460;2022-08-04T11:06:24;8.15;;;5.78;;
44026;SDS011;29696;55.698;37.460;2022-08-04T11:08:54;13.75;;;6.00;;
44026;SDS011;29696;55.698;37.460;2022-08-04T11:14:21;8.10;;;6.25;;
44026;SDS011;29696;55.698;37.460;2022-08-04T11:16:53;7.93;;;5.75;;
44026;SDS011;29696;55.698;37.460;2022-08-04T11:19:38;8.35;;;7.18;;
44026;SDS011;29696;55.698;37.460;2022-08-04T11:25:21;7.35;;;5.72;;
44026;SDS011;29696;55.698;37.460;2022-08-04T11:30:52;8.25;;;6.50;;
44026;SDS011;29696;55.698;37.460;2022-08-04T11:39:44;13.75;;;7.03;;
44026;SDS011;29696;55.698;37.460;2022-08-04T11:42:38;7.82;;;5.90;;
44026;SDS011;29696;55.698;37.460;2022-08-04T11:45:10;9.55;;;6.63;;
44026;SDS011;29696;55.698;37.460;2022-08-04T11:47:46;8.13;;;6.55;;
44026;SDS011;29696;55.698;37.460;2022-08-04T11:50:31;11.52;;;7.65;;
44026;SDS011;29696;55.698;37.460;2022-08-04T11:53:03;9.82;;;8.13;;
44026;SDS011;29696;55.698;37.460;2022-08-04T11:55:31;10.45;;;7.13;;
44026;SDS011;29696;55.698;37.460;2022-08-04T11:57:59;14.15;;;7.72;;
44026;SDS011;29696;55.698;37.460;2022-08-04T12:00:27;9.90;;;6.88;;
44026;SDS011;29696;55.698;37.460;2022-08-04T12:09:49;11.63;;;7.75;;
44026;SDS011;29696;55.698;37.460;2022-08-04T12:12:46;12.85;;;7.38;;
44026;SDS011;29696;55.698;37.460;2022-08-04T12:15:28;11.60;;;7.70;;
44026;SDS011;29696;55.698;37.460;2022-08-04T12:20:51;14.23;;;8.52;;
44026;SDS011;29696;55.698;37.460;2022-08-04T12:23:42;21.05;;;10.10;;
44026;SDS011;29696;55.698;37.460;2022-08-04T12:26:14;18.70;;;9.57;;
44026;SDS011;29696;55.698;37.460;2022-08-04T12:28:47;17.73;;;9.48;;
44026;SDS011;29696;55.698;37.460;2022-08-04T12:31:27;18.77;;;9.10;;
44026;SDS011;29696;55.698;37.460;2022-08-04T12:40:46;9.82;;;8.82;;
44026;SDS011;29696;55.698;37.460;2022-08-04T12:43:38;15.02;;;9.25;;
44026;SDS011;29696;55.698;37.460;2022-08-04T12:46:10;19.92;;;8.57;;
44026;SDS011;29696;55.698;37.460;2022-08-04T12:48:45;11.23;;;8.82;;
44026;SDS011;29696;55.698;37.460;2022-08-04T12:51:13;9.60;;;8.32;;
44026;SDS011;29696;55.698;37.460;2022-08-04T12:53:41;17.98;;;8.75;;
44026;SDS011;29696;55.698;37.460;2022-08-04T12:56:09;8.88;;;7.60;;
44026;SDS011;29696;55.698;37.460;2022-08-04T12:58:38;13.02;;;7.82;;
44026;SDS011;29696;55.698;37.460;2022-08-04T13:01:08;13.63;;;8.70;;
44026;SDS011;29696;55.698;37.460;2022-08-04T13:03:43;13.00;;;9.45;;
44026;SDS011;29696;55.698;37.460;2022-08-04T13:06:13;22.95;;;9.27;;
44026;SDS011;29696;55.698;37.460;2022-08-04T13:08:41;17.05;;;8.88;;
44026;SDS011;29696;55.698;37.460;2022-08-04T13:11:11;9.00;;;8.10;;
44026;SDS011;29696;55.698;37.460;2022-08-04T13:13:39;12.55;;;8.05;;
44026;SDS011;29696;55.698;37.460;2022-08-04T13:16:09;10.25;;;9.18;;
44026;SDS011;29696;55.698;37.460;2022-08-04T13:18:37;9.43;;;8.52;;
44026;SDS011;29696;55.698;37.460;2022-08-04T13:21:18;8.30;;;7.50;;
44026;SDS011;29696;55.698;37.460;2022-08-04T13:23:47;10.15;;;9.15;;
44026;SDS011;29696;55.698;37.460;2022-08-04T13:26:16;11.70;;;8.93;;
44026;SDS011;29696;55.698;37.460;2022-08-04T13:28:44;9.95;;;8.70;;
44026;SDS011;29696;55.698;37.460;2022-08-04T13:31:13;11.05;;;8.82;;
44026;SDS011;29696;55.698;37.460;2022-08-04T13:33:46;12.25;;;8.75;;
44026;SDS011;29696;55.698;37.460;2022-08-04T13:36:15;24.35;;;9.48;;
44026;SDS011;29696;55.698;37.460;2022-08-04T13:38:50;16.52;;;8.80;;
44026;SDS011;29696;55.698;37.460;2022-08-04T13:41:20;19.90;;;9.63;;
44026;SDS011;29696;55.698;37.460;2022-08-04T13:43:48;17.05;;;9.30;;
44026;SDS011;29696;55.698;37.460;2022-08-04T13:46:21;11.25;;;7.75;;
44026;SDS011;29696;55.698;37.460;2022-08-04T13:48:51;11.88;;;8.52;;
44026;SDS011;29696;55.698;37.460;2022-08-04T13:51:18;14.30;;;7.78;;
44026;SDS011;29696;55.698;37.460;2022-08-04T13:53:53;12.48;;;8.23;;
44026;SDS011;29696;55.698;37.460;2022-08-04T13:56:22;19.08;;;9.13;;
44026;SDS011;29696;55.698;37.460;2022-08-04T13:58:53;11.52;;;9.40;;
44026;SDS011;29696;55.698;37.460;2022-08-04T14:01:22;21.52;;;9.90;;
44026;SDS011;29696;55.698;37.460;2022-08-04T14:07:29;16.38;;;10.18;;
44026;SDS011;29696;55.698;37.460;2022-08-04T14:09:41;14.00;;;8.80;;
44026;SDS011;29696;55.698;37.460;2022-08-04T14:12:09;12.52;;;9.93;;
44026;SDS011;29696;55.698;37.460;2022-08-04T14:14:44;16.65;;;10.68;;
44026;SDS011;29696;55.698;37.460;2022-08-04T14:17:13;19.17;;;10.32;;
44026;SDS011;29696;55.698;37.460;2022-08-04T14:22:34;11.43;;;8.48;;
44026;SDS011;29696;55.698;37.460;2022-08-04T14:25:03;11.88;;;7.53;;
44026;SDS011;29696;55.698;37.460;2022-08-04T14:27:55;12.32;;;8.55;;
44026;SDS011;29696;55.698;37.460;2022-08-04T14:33:09;11.82;;;7.82;;
44026;SDS011;29696;55.698;37.460;2022-08-04T14:35:37;10.07;;;7.10;;
44026;SDS011;29696;55.698;37.460;2022-08-04T14:38:06;13.32;;;8.88;;
44026;SDS011;29696;55.698;37.460;2022-08-04T14:40:37;10.48;;;6.90;;
44026;SDS011;29696;55.698;37.460;2022-08-04T14:43:05;9.43;;;8.35;;
44026;SDS011;29696;55.698;37.460;2022-08-04T14:45:34;12.15;;;7.35;;
44026;SDS011;29696;55.698;37.460;2022-08-04T14:50:54;13.20;;;9.05;;
44026;SDS011;29696;55.698;37.460;2022-08-04T14:53:21;12.05;;;9.43;;
44026;SDS011;29696;55.698;37.460;2022-08-04T14:55:55;10.00;;;8.50;;
44026;SDS011;29696;55.698;37.460;2022-08-04T14:58:24;11.73;;;8.20;;
44026;SDS011;29696;55.698;37.460;2022-08-04T15:00:52;10.27;;;8.38;;
44026;SDS011;29696;55.698;37.460;2022-08-04T15:03:21;13.73;;;9.30;;
44026;SDS011;29696;55.698;37.460;2022-08-04T15:05:49;11.73;;;9.40;;
44026;SDS011;29696;55.698;37.460;2022-08-04T15:08:16;15.60;;;9.70;;
44026;SDS011;29696;55.698;37.460;2022-08-04T15:10:43;17.90;;;11.13;;
44026;SDS011;29696;55.698;37.460;2022-08-04T15:13:10;14.82;;;9.75;;
44026;SDS011;29696;55.698;37.460;2022-08-04T15:15:39;17.23;;;9.50;;
44026;SDS011;29696;55.698;37.460;2022-08-04T15:18:07;11.50;;;9.75;;
44026;SDS011;29696;55.698;37.460;2022-08-04T15:20:34;13.00;;;10.90;;
44026;SDS011;29696;55.698;37.460;2022-08-04T15:23:01;38.10;;;13.95;;
44026;SDS011;29696;55.698;37.460;2022-08-04T15:25:50;34.33;;;13.63;;
44026;SDS011;29696;55.698;37.460;2022-08-04T15:28:18;17.40;;;10.77;;
44026;SDS011;29696;55.698;37.460;2022-08-04T15:30:48;26.67;;;15.23;;
44026;SDS011;29696;55.698;37.460;2022-08-04T15:33:16;24.85;;;13.60;;
44026;SDS011;29696;55.698;37.460;2022-08-04T15:35:53;25.40;;;13.43;;
44026;SDS011;29696;55.698;37.460;2022-08-04T15:38:48;24.70;;;11.38;;
44026;SDS011;29696;55.698;37.460;2022-08-04T15:41:30;19.92;;;11.55;;
44026;SDS011;29696;55.698;37.460;2022-08-04T15:47:13;20.30;;;11.18;;
44026;SDS011;29696;55.698;37.460;2022-08-04T15:49:41;22.55;;;12.10;;
44026;SDS011;29696;55.698;37.460;2022-08-04T15:52:26;18.67;;;13.15;;
44026;SDS011;29696;55.698;37.460;2022-08-04T15:55:28;22.63;;;11.15;;
44026;SDS011;29696;55.698;37.460;2022-08-04T15:57:58;20.50;;;11.25;;
44026;SDS011;29696;55.698;37.460;2022-08-04T16:00:26;28.80;;;9.88;;
44026;SDS011;29696;55.698;37.460;2022-08-04T16:02:53;20.58;;;10.85;;
44026;SDS011;29696;55.698;37.460;2022-08-04T16:08:08;26.77;;;12.02;;
44026;SDS011;29696;55.698;37.460;2022-08-04T16:10:42;28.77;;;11.15;;
44026;SDS011;29696;55.698;37.460;2022-08-04T16:13:10;17.83;;;11.25;;
44026;SDS011;29696;55.698;37.460;2022-08-04T16:21:18;25.00;;;10.90;;
44026;SDS011;29696;55.698;37.460;2022-08-04T16:23:54;28.30;;;12.20;;
44026;SDS011;29696;55.698;37.460;2022-08-04T16:29:29;29.33;;;11.98;;
44026;SDS011;29696;55.698;37.460;2022-08-04T16:35:01;32.90;;;13.27;;
44026;SDS011;29696;55.698;37.460;2022-08-04T16:37:37;21.80;;;11.38;;
44026;SDS011;29696;55.698;37.460;2022-08-04T16:43:06;27.75;;;11.52;;
44026;SDS011;29696;55.698;37.460;2022-08-04T16:45:59;27.00;;;12.20;;
44026;SDS011;29696;55.698;37.460;2022-08-04T16:48:29;33.08;;;12.48;;
44026;SDS011;29696;55.698;37.460;2022-08-04T16:53:44;40.25;;;13.95;;
44026;SDS011;29696;55.698;37.460;2022-08-04T16:56:13;15.85;;;12.20;;
44026;SDS011;29696;55.698;37.460;2022-08-04T16:58:43;16.55;;;10.60;;
44026;SDS011;29696;55.698;37.460;2022-08-04T17:01:13;20.45;;;11.32;;
44026;SDS011;29696;55.698;37.460;2022-08-04T17:03:48;20.35;;;11.68;;
44026;SDS011;29696;55.698;37.460;2022-08-04T17:06:16;22.63;;;12.35;;
44026;SDS011;29696;55.698;37.460;2022-08-04T17:08:43;29.73;;;13.13;;
44026;SDS011;29696;55.698;37.460;2022-08-04T17:11:11;26.95;;;12.48;;
44026;SDS011;29696;55.698;37.460;2022-08-04T17:13:39;20.67;;;11.88;;
44026;SDS011;29696;55.698;37.460;2022-08-04T17:16:07;29.33;;;12.73;;
44026;SDS011;29696;55.698;37.460;2022-08-04T17:18:37;32.40;;;12.00;;
44026;SDS011;29696;55.698;37.460;2022-08-04T17:21:07;15.52;;;10.52;;
44026;SDS011;29696;55.698;37.460;2022-08-04T17:23:40;34.97;;;16.40;;
44026;SDS011;29696;55.698;37.460;2022-08-04T17:26:17;22.35;;;12.40;;
44026;SDS011;29696;55.698;37.460;2022-08-04T17:28:52;24.33;;;11.60;;
44026;SDS011;29696;55.698;37.460;2022-08-04T17:31:20;28.10;;;13.32;;
44026;SDS011;29696;55.698;37.460;2022-08-04T17:33:51;34.58;;;15.38;;
44026;SDS011;29696;55.698;37.460;2022-08-04T17:36:22;38.20;;;14.10;;
44026;SDS011;29696;55.698;37.460;2022-08-04T17:38:54;25.15;;;11.55;;
44026;SDS011;29696;55.698;37.460;2022-08-04T17:41:27;33.67;;;12.85;;
44026;SDS011;29696;55.698;37.460;2022-08-04T17:43:56;31.15;;;14.75;;
44026;SDS011;29696;55.698;37.460;2022-08-04T17:49:19;41.75;;;15.65;;
44026;SDS011;29696;55.698;37.460;2022-08-04T17:54:44;35.42;;;15.23;;
44026;SDS011;29696;55.698;37.460;2022-08-04T17:57:12;37.75;;;14.60;;
44026;SDS011;29696;55.698;37.460;2022-08-04T17:59:42;41.05;;;14.50;;
44026;SDS011;29696;55.698;37.460;2022-08-04T18:02:28;29.13;;;13.23;;
44026;SDS011;29696;55.698;37.460;2022-08-04T18:04:56;34.35;;;15.10;;
44026;SDS011;29696;55.698;37.460;2022-08-04T18:07:23;28.48;;;13.23;;
44026;SDS011;29696;55.698;37.460;2022-08-04T18:09:59;38.97;;;14.68;;
44026;SDS011;29696;55.698;37.460;2022-08-04T18:12:30;38.03;;;15.88;;
44026;SDS011;29696;55.698;37.460;2022-08-04T18:14:59;32.85;;;12.77;;
44026;SDS011;29696;55.698;37.460;2022-08-04T18:20:17;23.85;;;12.82;;
44026;SDS011;29696;55.698;37.460;2022-08-04T18:22:46;25.55;;;14.10;;
44026;SDS011;29696;55.698;37.460;2022-08-04T18:25:14;26.33;;;14.32;;
44026;SDS011;29696;55.698;37.460;2022-08-04T18:28:00;33.53;;;15.73;;
44026;SDS011;29696;55.698;37.460;2022-08-04T18:30:31;44.58;;;17.70;;
44026;SDS011;29696;55.698;37.460;2022-08-04T18:32:57;21.67;;;11.85;;
44026;SDS011;29696;55.698;37.460;2022-08-04T18:35:24;19.45;;;12.82;;
44026;SDS011;29696;55.698;37.460;2022-08-04T18:37:50;42.00;;;17.38;;
44026;SDS011;29696;55.698;37.460;2022-08-04T18:40:16;47.10;;;15.38;;
44026;SDS011;29696;55.698;37.460;2022-08-04T18:42:43;41.60;;;15.75;;
44026;SDS011;29696;55.698;37.460;2022-08-04T18:45:09;40.47;;;16.20;;
44026;SDS011;29696;55.698;37.460;2022-08-04T18:47:36;32.05;;;14.25;;
44026;SDS011;29696;55.698;37.460;2022-08-04T18:50:02;37.45;;;15.77;;
44026;SDS011;29696;55.698;37.460;2022-08-04T18:52:29;26.15;;;14.88;;
44026;SDS011;29696;55.698;37.460;2022-08-04T18:54:55;40.15;;;16.70;;
44026;SDS011;29696;55.698;37.460;2022-08-04T18:57:23;32.95;;;15.68;;
44026;SDS011;29696;55.698;37.460;2022-08-04T18:59:52;26.35;;;15.77;;
44026;SDS011;29696;55.698;37.460;2022-08-04T19:02:20;44.97;;;16.58;;
44026;SDS011;29696;55.698;37.460;2022-08-04T19:04:46;45.88;;;16.77;;
44026;SDS011;29696;55.698;37.460;2022-08-04T19:07:14;39.90;;;18.52;;
44026;SDS011;29696;55.698;37.460;2022-08-04T19:09:41;31.35;;;15.05;;
44026;SDS011;29696;55.698;37.460;2022-08-04T19:12:08;38.70;;;17.27;;
44026;SDS011;29696;55.698;37.460;2022-08-04T19:14:35;35.55;;;14.98;;
44026;SDS011;29696;55.698;37.460;2022-08-04T19:17:01;55.90;;;18.73;;
44026;SDS011;29696;55.698;37.460;2022-08-04T19:19:28;46.08;;;17.48;;
44026;SDS011;29696;55.698;37.460;2022-08-04T19:21:54;25.92;;;15.57;;
44026;SDS011;29696;55.698;37.460;2022-08-04T19:24:21;40.15;;;17.15;;
44026;SDS011;29696;55.698;37.460;2022-08-04T19:26:48;30.73;;;16.40;;
44026;SDS011;29696;55.698;37.460;2022-08-04T19:29:14;43.17;;;18.65;;
44026;SDS011;29696;55.698;37.460;2022-08-04T19:31:41;70.13;;;23.10;;
44026;SDS011;29696;55.698;37.460;2022-08-04T19:34:07;47.35;;;18.33;;
44026;SDS011;29696;55.698;37.460;2022-08-04T19:36:34;59.28;;;23.08;;
44026;SDS011;29696;55.698;37.460;2022-08-04T19:39:03;43.70;;;19.45;;
44026;SDS011;29696;55.698;37.460;2022-08-04T19:41:32;48.53;;;19.58;;
44026;SDS011;29696;55.698;37.460;2022-08-04T19:44:05;41.75;;;18.52;;
44026;SDS011;29696;55.698;37.460;2022-08-04T19:46:32;51.30;;;17.38;;
44026;SDS011;29696;55.698;37.460;2022-08-04T19:48:59;40.28;;;16.48;;
44026;SDS011;29696;55.698;37.460;2022-08-04T19:51:26;29.75;;;16.08;;
44026;SDS011;29696;55.698;37.460;2022-08-04T19:53:57;33.38;;;13.65;;
44026;SDS011;29696;55.698;37.460;2022-08-04T19:56:24;29.90;;;16.00;;
44026;SDS011;29696;55.698;37.460;2022-08-04T19:58:50;32.40;;;15.55;;